Bucksport, Maine
Current Conditions -  °F | °C
As of 5:35 AM on Wednesday 22 Oct 2014 (Local Time) from KBGR Reporting Station
Drizzle Drizzle  
Wind Chill: 39°   Ceiling: 7000
Heat Index: 45°   Visibility: 10mi
Dew Point: 43°   Wind: 12mph
Humidity: 93%   Direction: 20°NNE
Pressure: 30.19"   Gusts: NA
Location:  44.58°N, 68.79°W
Report Text: KBGR 220935Z 02010KT 10SM -DZ SCT009 BKN070 OVC090 07/06 A3019 RMK AO2 P0000 T00720061
Loading
Personal Weather Stations






























Interactive Weather Map
Tropical Storm Tracking
New forecast layout! Learn more

10-Day Weather Forecast

Advertisements
Track Severe Weather on mobile